Airport ID:K63S
Update Time (UTC):24/01/2021 13:00
Wind Speed (Knots):0
Wind Direction (Magnetic):360
Temperature (°C):-6
Dew Point (°C):-8
Humidity (%):81
Altimeter (inHg):29.89
Density Altitude (Feet):
Visibility:10+
Clouds (Hundreds of feet):\\\\
Present Weather:
METAR:METAR K63S 241255Z AUTO 00000KT 10SM M06/M09 A2989 RMK A01

The data displayed is for advisory purposes only and is not to be used for flight planning or operations.